Time;durP1;ratioP1;P1;durP2;ratioP2;P2;SDS_P1;SDS_P2;PMS_P1;PMS_P2;Temp;Humidity;BMP_temperature;BMP_pressure;BME280_temperature;BME280_humidity;BME280_pressure;Samples;Min_cycle;Max_cycle;Signal;HPM_P1;HPM_P2
2021/07/11 00:02:23;;;;;;;3.72;3.42;;;25.60;99.90;;;;;;5104358;28;20035;-74
2021/07/11 00:04:49;;;;;;;7.20;4.25;;;25.50;99.90;;;;;;5108384;28;20024;-74
2021/07/11 00:07:15;;;;;;;4.10;3.38;;;25.60;99.90;;;;;;5100404;28;20085;-75
2021/07/11 00:09:42;;;;;;;4.18;3.60;;;25.60;99.90;;;;;;5102910;28;20054;-74
2021/07/11 00:12:08;;;;;;;6.05;4.53;;;25.60;99.90;;;;;;5101908;28;20055;-74
2021/07/11 00:14:34;;;;;;;5.07;4.28;;;25.50;99.90;;;;;;5108045;28;20488;-74
2021/07/11 00:17:00;;;;;;;8.77;4.30;;;25.30;99.90;;;;;;5108333;28;20055;-74
2021/07/11 00:19:25;;;;;;;3.65;3.35;;;25.20;99.90;;;;;;5096041;28;20023;-74
2021/07/11 00:21:57;;;;;;;4.18;3.78;;;25.10;99.90;;;;;;5101593;28;20484;-74
2021/07/11 00:24:23;;;;;;;4.10;3.65;;;25.10;99.90;;;;;;5106816;28;20580;-74
2021/07/11 00:26:49;;;;;;;4.80;3.80;;;25.20;99.90;;;;;;5102814;28;20024;-73
2021/07/11 00:29:14;;;;;;;6.85;3.92;;;25.20;99.90;;;;;;5105893;27;20020;-74
2021/07/11 00:31:40;;;;;;;5.93;4.03;;;25.20;99.90;;;;;;5101714;28;20450;-74
2021/07/11 00:34:06;;;;;;;3.42;3.13;;;25.20;99.90;;;;;;5100729;27;20035;-74
2021/07/11 00:36:31;;;;;;;4.15;3.20;;;25.20;99.90;;;;;;5106159;27;20515;-74
2021/07/11 00:38:57;;;;;;;4.70;4.10;;;25.20;99.90;;;;;;5107578;28;20036;-73
2021/07/11 00:41:23;;;;;;;5.88;3.92;;;25.20;99.90;;;;;;5110467;28;20134;-73
2021/07/11 00:43:48;;;;;;;4.00;3.63;;;25.10;99.90;;;;;;5107049;28;20028;-73
2021/07/11 00:46:14;;;;;;;5.10;3.28;;;25.10;99.90;;;;;;5107800;27;20118;-73
2021/07/11 00:48:40;;;;;;;6.32;4.10;;;25.10;99.90;;;;;;5106664;28;20111;-73
2021/07/11 00:51:06;;;;;;;3.15;2.95;;;25.00;99.90;;;;;;5111691;28;20023;-73
2021/07/11 00:53:33;;;;;;;5.57;4.05;;;25.00;99.90;;;;;;5109447;28;20026;-71
2021/07/11 00:55:58;;;;;;;12.23;4.07;;;25.00;99.90;;;;;;5109534;28;20099;-71
2021/07/11 00:58:24;;;;;;;3.90;3.60;;;25.00;99.90;;;;;;5105856;28;20123;-72
2021/07/11 01:00:55;;;;;;;8.95;3.70;;;25.00;99.90;;;;;;5101328;28;20047;-71
2021/07/11 01:03:30;;;;;;;4.05;3.72;;;25.00;99.90;;;;;;5109953;28;20118;-71
2021/07/11 01:05:57;;;;;;;4.43;3.38;;;25.00;99.90;;;;;;5104754;28;20028;-72
2021/07/11 01:08:43;;;;;;;4.82;3.50;;;24.90;99.90;;;;;;5106585;28;22018;-72
2021/07/11 01:11:11;;;;;;;5.00;4.05;;;24.90;99.90;;;;;;5111199;28;20052;-72
2021/07/11 01:13:38;;;;;;;4.30;3.90;;;24.90;99.90;;;;;;5105269;28;20082;-71
2021/07/11 01:16:08;;;;;;;4.22;3.88;;;24.90;99.90;;;;;;5109056;28;20446;-72
2021/07/11 01:18:39;;;;;;;4.85;3.38;;;25.00;99.90;;;;;;5107595;28;20028;-72
2021/07/11 01:21:11;;;;;;;4.05;3.75;;;24.90;99.90;;;;;;5094606;28;20055;-73
2021/07/11 01:23:58;;;;;;;3.92;3.17;;;24.80;99.90;;;;;;5101072;28;20123;-72
2021/07/11 01:26:25;;;;;;;4.82;3.40;;;24.80;99.90;;;;;;5101814;28;20024;-73
2021/07/11 01:28:53;;;;;;;4.95;3.45;;;24.80;99.90;;;;;;5105062;28;20034;-72
2021/07/11 01:31:24;;;;;;;6.03;3.42;;;24.70;99.90;;;;;;5108833;28;20228;-72
2021/07/11 01:33:50;;;;;;;4.72;4.35;;;24.60;99.90;;;;;;5107682;28;20024;-73
2021/07/11 01:36:17;;;;;;;5.55;3.78;;;24.60;99.90;;;;;;5105491;28;20027;-72
2021/07/11 01:38:43;;;;;;;3.70;3.40;;;24.60;99.90;;;;;;5109784;28;20036;-72
2021/07/11 01:41:11;;;;;;;4.03;3.72;;;24.50;99.90;;;;;;5109313;28;20024;-72
2021/07/11 01:43:37;;;;;;;3.85;3.58;;;24.50;99.90;;;;;;5107517;28;20032;-73
2021/07/11 01:46:05;;;;;;;5.70;3.75;;;24.50;99.90;;;;;;5101175;28;20035;-72
2021/07/11 01:48:32;;;;;;;4.22;3.90;;;24.60;99.90;;;;;;5109196;28;20023;-73
2021/07/11 01:50:59;;;;;;;4.10;3.83;;;24.60;99.90;;;;;;5108613;28;20404;-73
2021/07/11 01:53:34;;;;;;;5.85;3.10;;;24.50;99.90;;;;;;5121753;27;20046;-72
2021/07/11 01:56:01;;;;;;;4.70;3.42;;;24.50;99.90;;;;;;5101029;28;20143;-72
2021/07/11 01:58:31;;;;;;;5.57;3.65;;;24.40;99.90;;;;;;5101564;28;20051;-72
2021/07/11 02:00:58;;;;;;;10.35;4.18;;;24.40;99.90;;;;;;5100771;28;20031;-72
2021/07/11 02:03:25;;;;;;;5.70;3.75;;;24.50;99.90;;;;;;5110498;28;20026;-72
2021/07/11 02:05:53;;;;;;;6.90;4.57;;;24.50;99.90;;;;;;5108908;27;20050;-72
2021/07/11 02:08:19;;;;;;;4.55;3.70;;;24.50;99.90;;;;;;5105900;28;20085;-72
2021/07/11 02:10:47;;;;;;;4.10;3.63;;;24.40;99.90;;;;;;5107007;28;20027;-72
2021/07/11 02:13:28;;;;;;;3.83;3.53;;;24.40;99.90;;;;;;5110477;28;20385;-73
2021/07/11 02:15:58;;;;;;;4.25;3.85;;;24.40;99.90;;;;;;5104185;28;20081;-74
2021/07/11 02:18:27;;;;;;;4.22;3.22;;;24.40;99.90;;;;;;5105739;28;20046;-74
2021/07/11 02:20:55;;;;;;;3.80;3.50;;;24.30;99.90;;;;;;5101248;28;20047;-73
2021/07/11 02:23:24;;;;;;;5.55;4.03;;;24.20;99.90;;;;;;5109442;27;20019;-73
2021/07/11 02:25:51;;;;;;;4.25;3.85;;;24.10;99.90;;;;;;5099473;28;20084;-73
2021/07/11 02:28:17;;;;;;;8.75;3.55;;;24.20;99.90;;;;;;5109512;28;20026;-73
2021/07/11 02:30:56;;;;;;;8.35;3.72;;;24.20;99.90;;;;;;5109305;28;20023;-74
2021/07/11 02:33:36;;;;;;;7.25;3.40;;;24.20;99.90;;;;;;5099707;28;20103;-74
2021/07/11 02:36:11;;;;;;;6.22;3.90;;;24.20;99.90;;;;;;5107222;28;20043;-74
2021/07/11 02:39:26;;;;;;;6.70;4.32;;;24.20;99.90;;;;;;5105810;28;20058;-74
2021/07/11 02:41:57;;;;;;;4.53;3.28;;;24.20;99.90;;;;;;5071639;28;20115;-74
2021/07/11 02:44:24;;;;;;;7.43;4.07;;;24.20;99.90;;;;;;5109342;28;20088;-74
2021/07/11 02:46:55;;;;;;;4.57;3.72;;;24.10;99.90;;;;;;5109054;27;20023;-72
2021/07/11 02:49:24;;;;;;;10.18;4.57;;;24.10;99.90;;;;;;5109353;28;20024;-72
2021/07/11 02:51:54;;;;;;;7.88;3.45;;;24.10;99.90;;;;;;5109077;28;20032;-73
2021/07/11 02:54:24;;;;;;;3.28;3.05;;;24.10;99.90;;;;;;5099404;28;20528;-74
2021/07/11 02:56:57;;;;;;;4.25;3.85;;;24.20;99.90;;;;;;5106009;28;20027;-73
2021/07/11 02:59:24;;;;;;;3.97;3.67;;;24.20;99.90;;;;;;5105948;28;20019;-73
2021/07/11 03:01:51;;;;;;;9.50;2.92;;;24.20;99.90;;;;;;5099985;28;20035;-74
2021/07/11 03:04:19;;;;;;;4.32;3.10;;;24.10;99.90;;;;;;5104394;28;20031;-74
2021/07/11 03:06:45;;;;;;;4.47;3.80;;;24.00;99.90;;;;;;5095899;28;20048;-74
2021/07/11 03:09:11;;;;;;;5.50;3.72;;;23.90;99.90;;;;;;5110256;28;20058;-74
2021/07/11 03:11:40;;;;;;;5.22;4.68;;;23.90;99.90;;;;;;5109157;28;20059;-74
2021/07/11 03:14:10;;;;;;;5.68;3.95;;;23.90;99.90;;;;;;5108573;28;20435;-74
2021/07/11 03:16:40;;;;;;;4.00;3.55;;;23.90;99.90;;;;;;5101444;28;20036;-73
2021/07/11 03:19:07;;;;;;;3.97;3.67;;;23.90;99.90;;;;;;5107781;28;20024;-73
2021/07/11 03:21:33;;;;;;;4.25;3.88;;;24.00;99.90;;;;;;5107844;28;20035;-74
2021/07/11 03:24:01;;;;;;;7.60;3.63;;;24.10;99.90;;;;;;5101503;28;20036;-74
2021/07/11 03:26:28;;;;;;;4.25;3.50;;;24.20;99.90;;;;;;5105659;28;20051;-75
2021/07/11 03:28:55;;;;;;;3.65;3.20;;;24.20;99.90;;;;;;5107623;28;20566;-73
2021/07/11 03:31:22;;;;;;;4.20;3.75;;;24.10;99.90;;;;;;5102809;28;20019;-73
2021/07/11 03:33:58;;;;;;;3.63;3.33;;;24.00;99.90;;;;;;5105481;28;20393;-73
2021/07/11 03:36:25;;;;;;;3.78;3.47;;;24.10;99.90;;;;;;5107114;28;20374;-72
2021/07/11 03:38:57;;;;;;;4.90;2.95;;;24.10;99.90;;;;;;5104184;28;20035;-72
2021/07/11 03:41:29;;;;;;;2.88;2.67;;;24.00;99.90;;;;;;5108065;28;20023;-73
2021/07/11 03:43:57;;;;;;;6.43;3.55;;;24.00;99.90;;;;;;5108732;28;20103;-73
2021/07/11 03:46:28;;;;;;;5.00;4.28;;;23.90;99.90;;;;;;5109328;28;20630;-74
2021/07/11 03:48:58;;;;;;;4.50;4.10;;;23.90;99.90;;;;;;5101022;28;20409;-73
2021/07/11 03:51:28;;;;;;;4.68;3.05;;;23.90;99.90;;;;;;5097775;28;20053;-71
2021/07/11 03:53:56;;;;;;;4.07;3.78;;;23.80;99.90;;;;;;5106837;28;20016;-71
2021/07/11 03:56:28;;;;;;;12.35;3.90;;;23.80;99.90;;;;;;5100650;28;20026;-71
2021/07/11 03:58:58;;;;;;;4.05;3.70;;;23.70;99.90;;;;;;5100761;28;20032;-72
2021/07/11 04:01:33;;;;;;;6.03;3.60;;;23.70;99.90;;;;;;5093946;28;20083;-72
2021/07/11 04:04:03;;;;;;;6.72;4.22;;;23.70;99.90;;;;;;5101228;28;20070;-71
2021/07/11 04:06:31;;;;;;;6.60;3.70;;;23.80;99.90;;;;;;5105317;28;20027;-72
2021/07/11 04:09:02;;;;;;;5.32;4.22;;;23.80;99.90;;;;;;5107504;28;20057;-73
2021/07/11 04:11:28;;;;;;;8.52;3.15;;;23.80;99.90;;;;;;5109654;28;20016;-72
2021/07/11 04:13:56;;;;;;;4.38;3.85;;;23.80;99.90;;;;;;5105756;28;20160;-72
2021/07/11 04:16:28;;;;;;;4.18;3.22;;;23.80;99.90;;;;;;5104951;28;20385;-72
2021/07/11 04:18:57;;;;;;;4.13;3.83;;;23.70;99.90;;;;;;5107996;28;20201;-72
2021/07/11 04:21:26;;;;;;;5.45;4.10;;;23.70;99.90;;;;;;5112705;28;20034;-73
2021/07/11 04:23:55;;;;;;;3.65;3.13;;;23.70;99.90;;;;;;5112412;28;20031;-71
2021/07/11 04:26:22;;;;;;;3.50;3.20;;;23.70;99.90;;;;;;5099637;27;20115;-72
2021/07/11 04:28:48;;;;;;;4.00;3.60;;;23.70;99.90;;;;;;5106559;28;20036;-72
2021/07/11 04:31:17;;;;;;;8.27;3.25;;;23.80;99.90;;;;;;5109329;28;20386;-72
2021/07/11 04:33:46;;;;;;;8.10;3.67;;;23.70;99.90;;;;;;5106106;28;20049;-72
2021/07/11 04:36:12;;;;;;;3.97;3.65;;;23.70;99.90;;;;;;5109397;28;20023;-72
2021/07/11 04:38:38;;;;;;;3.40;3.10;;;23.70;99.90;;;;;;5110496;28;20039;-72
2021/07/11 04:41:07;;;;;;;4.20;3.33;;;23.70;99.90;;;;;;5105202;28;20055;-72
2021/07/11 04:43:33;;;;;;;3.67;3.47;;;23.80;99.90;;;;;;5102501;28;20023;-73
2021/07/11 04:45:58;;;;;;;4.28;3.58;;;23.80;99.90;;;;;;5108376;28;20052;-72
2021/07/11 04:48:24;;;;;;;6.82;3.75;;;23.80;99.90;;;;;;5111915;28;20067;-72
2021/07/11 04:50:50;;;;;;;4.53;3.63;;;23.80;99.90;;;;;;5104527;28;20043;-72
2021/07/11 04:53:17;;;;;;;6.28;3.30;;;23.90;99.90;;;;;;5108936;28;20363;-72
2021/07/11 04:55:47;;;;;;;6.57;4.40;;;24.00;99.90;;;;;;5107654;28;20054;-72
2021/07/11 04:58:14;;;;;;;3.47;3.17;;;24.10;99.90;;;;;;5108287;28;20024;-72
2021/07/11 05:00:40;;;;;;;3.90;3.50;;;24.00;99.90;;;;;;5105828;28;20023;-71
2021/07/11 05:03:06;;;;;;;3.55;3.22;;;24.00;99.90;;;;;;5101108;28;20023;-72
2021/07/11 05:05:34;;;;;;;4.60;3.22;;;24.10;99.90;;;;;;5100337;28;20020;-72
2021/07/11 05:08:01;;;;;;;8.15;4.03;;;24.20;99.90;;;;;;5109496;28;20420;-72
2021/07/11 05:10:27;;;;;;;7.43;5.85;;;24.30;99.90;;;;;;5108706;28;20032;-71
2021/07/11 05:12:53;;;;;;;4.30;3.83;;;24.40;99.90;;;;;;5111223;28;20015;-71
2021/07/11 05:15:18;;;;;;;6.05;3.20;;;24.40;99.90;;;;;;5104777;28;20055;-71
2021/07/11 05:17:44;;;;;;;9.07;3.38;;;24.40;99.90;;;;;;5105022;28;20034;-71
2021/07/11 05:20:10;;;;;;;3.88;3.58;;;24.60;99.90;;;;;;5105902;28;20024;-73
2021/07/11 05:22:39;;;;;;;6.50;3.55;;;24.70;99.90;;;;;;5102572;28;20032;-73
2021/07/11 05:25:09;;;;;;;6.10;3.25;;;24.70;99.90;;;;;;5094310;28;20104;-74
2021/07/11 05:27:35;;;;;;;5.93;3.47;;;24.80;99.90;;;;;;5108450;28;20089;-74
2021/07/11 05:30:01;;;;;;;4.75;3.00;;;24.90;99.90;;;;;;5099878;28;20351;-75
2021/07/11 05:32:28;;;;;;;8.75;3.38;;;24.90;99.90;;;;;;5106710;28;20081;-74
2021/07/11 05:34:54;;;;;;;9.80;3.38;;;25.00;99.90;;;;;;5106604;27;20052;-75
2021/07/11 05:37:20;;;;;;;5.63;4.60;;;25.00;99.90;;;;;;5092010;28;20066;-74
2021/07/11 05:39:45;;;;;;;3.72;3.42;;;25.00;99.90;;;;;;5092093;28;20112;-74
2021/07/11 05:42:11;;;;;;;4.28;3.92;;;25.10;99.90;;;;;;5092765;28;20510;-74
2021/07/11 05:44:37;;;;;;;6.97;3.13;;;25.10;99.90;;;;;;5090635;28;20036;-74
2021/07/11 05:47:03;;;;;;;4.20;3.80;;;25.30;99.90;;;;;;5091774;28;20052;-73
2021/07/11 05:49:29;;;;;;;4.22;3.55;;;25.30;99.90;;;;;;5091223;28;20482;-73
2021/07/11 05:51:54;;;;;;;4.32;3.60;;;25.40;99.90;;;;;;5101060;28;20118;-74
2021/07/11 05:54:20;;;;;;;3.67;3.40;;;25.40;99.90;;;;;;5114105;28;20023;-73
2021/07/11 05:56:46;;;;;;;2.95;2.20;;;25.50;99.90;;;;;;5113725;28;20050;-74
2021/07/11 05:59:11;;;;;;;6.35;3.17;;;25.60;99.90;;;;;;5111888;28;20500;-74
2021/07/11 06:01:37;;;;;;;3.25;2.78;;;25.70;99.90;;;;;;5109944;28;20027;-74
2021/07/11 06:04:03;;;;;;;4.68;3.13;;;25.80;99.90;;;;;;5092045;28;20439;-73
2021/07/11 06:06:28;;;;;;;9.95;3.20;;;25.90;99.90;;;;;;5091477;28;20024;-73
2021/07/11 06:08:54;;;;;;;5.90;2.67;;;26.00;99.90;;;;;;5091359;28;20032;-73
2021/07/11 06:11:22;;;;;;;5.75;3.55;;;26.10;99.90;;;;;;5093621;28;20020;-74
2021/07/11 06:13:48;;;;;;;3.08;2.80;;;26.10;99.90;;;;;;5091917;28;20028;-73
2021/07/11 06:16:13;;;;;;;3.72;3.42;;;26.20;99.90;;;;;;5092096;28;20390;-74
2021/07/11 06:18:39;;;;;;;3.22;2.85;;;26.20;99.90;;;;;;5089631;28;20044;-74
2021/07/11 06:21:05;;;;;;;5.60;2.97;;;26.30;99.90;;;;;;5090804;28;20081;-74
2021/07/11 06:23:31;;;;;;;6.57;4.95;;;26.40;99.90;;;;;;5110468;28;20030;-73
2021/07/11 06:25:57;;;;;;;4.63;3.53;;;26.50;99.90;;;;;;5111048;28;20035;-74
2021/07/11 06:28:22;;;;;;;3.15;2.92;;;26.60;99.90;;;;;;5111421;28;20062;-74
2021/07/11 06:30:48;;;;;;;3.88;2.25;;;26.70;99.90;;;;;;5101434;28;20063;-74
2021/07/11 06:33:14;;;;;;;5.22;2.67;;;26.90;99.90;;;;;;5090084;28;20024;-74
2021/07/11 06:35:40;;;;;;;3.25;2.70;;;26.90;99.90;;;;;;5090227;28;20024;-74
2021/07/11 06:38:05;;;;;;;2.92;2.63;;;26.90;99.90;;;;;;5089714;28;20077;-74
2021/07/11 06:40:31;;;;;;;7.70;2.60;;;27.00;99.90;;;;;;5091182;28;20040;-74
2021/07/11 06:42:57;;;;;;;3.20;2.95;;;27.00;99.90;;;;;;5091476;28;20095;-75
2021/07/11 06:45:25;;;;;;;6.05;2.60;;;27.00;99.90;;;;;;5091160;28;20032;-74
2021/07/11 06:47:51;;;;;;;10.05;3.53;;;27.00;99.90;;;;;;5089525;28;20468;-74
2021/07/11 06:50:17;;;;;;;3.17;2.47;;;27.10;99.90;;;;;;5090738;28;20103;-74
2021/07/11 06:52:44;;;;;;;2.80;2.53;;;27.10;99.90;;;;;;5099621;28;20103;-74
2021/07/11 06:55:11;;;;;;;4.50;2.72;;;27.10;99.90;;;;;;5111310;28;20066;-74
2021/07/11 06:57:38;;;;;;;9.02;4.45;;;27.10;99.90;;;;;;5107261;28;20027;-74
2021/07/11 07:00:10;;;;;;;6.85;3.63;;;27.20;99.90;;;;;;5089275;28;20024;-74
2021/07/11 07:02:35;;;;;;;6.10;2.22;;;27.30;99.90;;;;;;5100323;28;20119;-74
2021/07/11 07:05:01;;;;;;;4.80;2.40;;;27.40;99.90;;;;;;5102512;28;20100;-74
2021/07/11 07:07:27;;;;;;;2.63;2.42;;;27.50;99.90;;;;;;5108798;28;20061;-75
2021/07/11 07:09:53;;;;;;;2.33;2.20;;;27.60;99.90;;;;;;5109097;28;20023;-74
2021/07/11 07:12:18;;;;;;;2.05;1.80;;;27.70;99.90;;;;;;5107098;28;20022;-74
2021/07/11 07:14:44;;;;;;;5.07;2.00;;;27.70;99.90;;;;;;5109364;28;20450;-74
2021/07/11 07:17:10;;;;;;;3.17;2.72;;;27.70;99.90;;;;;;5108739;28;20032;-67
2021/07/11 07:19:35;;;;;;;2.67;2.47;;;27.70;99.90;;;;;;5108078;28;20032;-67
2021/07/11 07:22:01;;;;;;;9.32;2.00;;;27.60;99.90;;;;;;5109064;28;20028;-69
2021/07/11 07:24:27;;;;;;;2.53;2.30;;;27.60;99.90;;;;;;5108372;28;20434;-65
2021/07/11 07:26:55;;;;;;;3.45;2.30;;;27.60;99.90;;;;;;5098444;28;20501;-65
2021/07/11 07:29:21;;;;;;;8.27;3.10;;;27.60;99.90;;;;;;5110224;28;20103;-64
2021/07/11 07:31:47;;;;;;;5.57;2.85;;;27.60;99.90;;;;;;5110226;28;20102;-64
2021/07/11 07:34:14;;;;;;;4.55;2.72;;;27.70;99.90;;;;;;5108438;28;20461;-63
2021/07/11 07:36:40;;;;;;;3.72;3.25;;;27.90;99.90;;;;;;5111186;28;20092;-64
2021/07/11 07:39:06;;;;;;;2.60;2.35;;;27.90;99.90;;;;;;5113009;28;20019;-65
2021/07/11 07:41:32;;;;;;;5.57;2.55;;;27.80;99.90;;;;;;5113019;28;20516;-64
2021/07/11 07:43:58;;;;;;;3.78;2.95;;;28.00;99.90;;;;;;5114425;28;20023;-67
2021/07/11 07:46:24;;;;;;;2.78;2.50;;;28.00;99.90;;;;;;5113036;28;20593;-66
2021/07/11 07:48:49;;;;;;;2.80;2.58;;;28.10;99.90;;;;;;5113085;28;20035;-66
2021/07/11 07:51:16;;;;;;;2.65;2.30;;;28.20;99.90;;;;;;5099525;28;20024;-66
2021/07/11 07:53:42;;;;;;;7.55;2.55;;;28.30;99.90;;;;;;5100224;28;20028;-69
2021/07/11 07:56:07;;;;;;;3.67;2.67;;;28.30;99.90;;;;;;5112173;28;20023;-66
2021/07/11 07:58:35;;;;;;;3.58;2.78;;;28.30;99.90;;;;;;5114107;28;20095;-66
2021/07/11 08:01:03;;;;;;;5.13;3.15;;;28.40;99.90;;;;;;5114159;28;20111;-67
2021/07/11 08:03:29;;;;;;;3.20;2.78;;;28.40;99.90;;;;;;5114648;28;20456;-70
2021/07/11 08:05:55;;;;;;;3.83;3.53;;;28.40;99.90;;;;;;5106953;28;20051;-67
2021/07/11 08:08:24;;;;;;;3.22;2.95;;;28.30;99.90;;;;;;5098353;28;20469;-67
2021/07/11 08:10:49;;;;;;;9.25;3.50;;;28.30;99.90;;;;;;5111360;28;20413;-68
2021/07/11 08:13:20;;;;;;;4.28;3.95;;;28.40;99.90;;;;;;5114033;28;20020;-68
2021/07/11 08:15:47;;;;;;;5.55;3.63;;;28.60;99.90;;;;;;5114327;28;20027;-68
2021/07/11 08:18:13;;;;;;;3.95;3.22;;;28.70;99.90;;;;;;5113586;28;20038;-68
2021/07/11 08:20:39;;;;;;;5.30;2.78;;;28.70;99.90;;;;;;5113313;28;20452;-68
2021/07/11 08:23:05;;;;;;;7.60;2.65;;;28.60;99.90;;;;;;5092677;28;20472;-68
2021/07/11 08:25:31;;;;;;;8.07;3.45;;;28.70;99.90;;;;;;5107824;28;20027;-69
2021/07/11 08:27:56;;;;;;;7.50;3.30;;;28.60;99.90;;;;;;5111105;28;20067;-67
2021/07/11 08:30:22;;;;;;;5.25;3.10;;;28.60;99.90;;;;;;5112130;28;20397;-68
2021/07/11 08:32:48;;;;;;;4.13;3.53;;;28.70;99.90;;;;;;5112270;28;20489;-68
2021/07/11 08:35:14;;;;;;;7.70;3.40;;;28.70;99.90;;;;;;5106693;28;20032;-68
2021/07/11 08:37:40;;;;;;;3.67;3.38;;;28.60;99.90;;;;;;5093096;28;20704;-67
2021/07/11 08:40:11;;;;;;;3.22;3.03;;;28.70;99.90;;;;;;5108199;28;20055;-69
2021/07/11 08:42:41;;;;;;;4.55;4.13;;;28.90;99.90;;;;;;5111012;28;20661;-70
2021/07/11 08:45:09;;;;;;;4.03;3.58;;;29.00;99.90;;;;;;5113171;28;20488;-69
2021/07/11 08:47:39;;;;;;;8.15;3.78;;;29.00;99.90;;;;;;5107710;28;20089;-68
2021/07/11 08:50:07;;;;;;;3.80;3.50;;;29.10;99.90;;;;;;5104225;28;20400;-68
2021/07/11 08:52:35;;;;;;;6.72;4.50;;;29.20;99.90;;;;;;5111511;28;20015;-68
2021/07/11 08:55:01;;;;;;;7.30;3.05;;;29.20;99.90;;;;;;5108735;28;20028;-69
2021/07/11 08:57:26;;;;;;;6.35;3.97;;;29.30;99.90;;;;;;5108142;28;20065;-69
2021/07/11 08:59:52;;;;;;;8.13;3.70;;;29.30;99.90;;;;;;5112358;28;20023;-68
2021/07/11 09:02:18;;;;;;;9.73;4.60;;;29.30;99.90;;;;;;5110229;28;20091;-67
2021/07/11 09:04:46;;;;;;;15.90;5.82;;;29.10;99.90;;;;;;5112588;28;20496;-64
2021/07/11 09:07:20;;;;;;;9.32;5.50;;;28.70;99.90;;;;;;5111424;28;20476;-63
2021/07/11 09:09:54;;;;;;;10.32;5.78;;;28.40;99.90;;;;;;5108092;28;20028;-63
2021/07/11 09:12:20;;;;;;;15.85;5.05;;;27.90;99.90;;;;;;5112724;28;20015;-64
2021/07/11 09:14:45;;;;;;;6.93;5.18;;;27.70;99.90;;;;;;5112434;28;20480;-61
2021/07/11 09:17:13;;;;;;;8.20;5.53;;;27.50;99.90;;;;;;5108308;28;20050;-63
2021/07/11 09:19:45;;;;;;;6.32;5.40;;;27.50;99.90;;;;;;5111411;28;20054;-63
2021/07/11 09:22:24;;;;;;;6.47;4.82;;;27.60;99.90;;;;;;5108288;28;20435;-63
2021/07/11 09:25:00;;;;;;;4.85;4.45;;;27.60;99.90;;;;;;5110060;28;20055;-62
2021/07/11 09:27:32;;;;;;;7.43;5.10;;;27.50;99.90;;;;;;5107287;28;20561;-63
2021/07/11 09:30:06;;;;;;;10.10;5.22;;;27.30;99.90;;;;;;5111219;28;20034;-64
2021/07/11 09:32:34;;;;;;;9.00;5.03;;;27.40;99.90;;;;;;5108631;28;20016;-63
2021/07/11 09:35:13;;;;;;;5.22;4.72;;;27.40;99.90;;;;;;5110241;28;20030;-63
2021/07/11 09:37:45;;;;;;;6.10;4.80;;;27.50;99.90;;;;;;5109226;28;20066;-64
2021/07/11 09:40:13;;;;;;;10.73;3.90;;;27.60;99.90;;;;;;5109658;28;20105;-65
2021/07/11 09:42:42;;;;;;;6.15;4.25;;;27.60;99.90;;;;;;5108667;28;20028;-64
2021/07/11 09:45:18;;;;;;;6.72;4.60;;;27.70;99.90;;;;;;5111138;28;20122;-64
2021/07/11 09:47:46;;;;;;;9.85;3.58;;;27.80;99.90;;;;;;5108299;28;20028;-62
2021/07/11 09:50:21;;;;;;;6.38;4.18;;;27.90;99.90;;;;;;5108172;28;20061;-63
2021/07/11 09:52:49;;;;;;;6.53;3.80;;;28.00;99.90;;;;;;5111207;28;20641;-63
2021/07/11 09:55:21;;;;;;;9.05;4.10;;;27.90;99.90;;;;;;5107053;28;20015;-63
2021/07/11 09:58:08;;;;;;;5.10;4.45;;;28.10;99.90;;;;;;5109910;28;20489;-63
2021/07/11 10:00:42;;;;;;;5.30;4.20;;;28.20;99.90;;;;;;5093879;28;20039;-64
2021/07/11 10:03:12;;;;;;;6.03;3.72;;;28.00;99.90;;;;;;5112384;27;20026;-63
2021/07/11 10:05:39;;;;;;;4.47;4.07;;;27.90;99.90;;;;;;5107282;28;20036;-64
2021/07/11 10:08:06;;;;;;;4.82;3.92;;;27.90;99.90;;;;;;5096519;28;20038;-64
2021/07/11 10:10:37;;;;;;;4.15;3.75;;;28.00;99.90;;;;;;5112052;28;20043;-65
2021/07/11 10:13:07;;;;;;;4.70;4.20;;;28.10;99.90;;;;;;5111847;28;20069;-66
2021/07/11 10:15:36;;;;;;;5.47;4.22;;;28.20;99.90;;;;;;5111657;28;20053;-67
2021/07/11 10:18:04;;;;;;;4.78;3.63;;;28.20;99.90;;;;;;5105239;28;20077;-68
2021/07/11 10:20:33;;;;;;;5.32;3.65;;;28.30;99.90;;;;;;5103221;28;20469;-70
2021/07/11 10:23:00;;;;;;;6.05;4.05;;;28.30;99.90;;;;;;5111541;28;20027;-68
2021/07/11 10:25:30;;;;;;;4.32;4.03;;;28.40;99.90;;;;;;5107180;28;20041;-67
2021/07/11 10:28:10;;;;;;;4.20;3.90;;;28.30;99.90;;;;;;5111032;28;20024;-67
2021/07/11 10:30:39;;;;;;;6.05;4.38;;;28.30;99.90;;;;;;5109906;28;20024;-67
2021/07/11 10:33:19;;;;;;;9.45;4.97;;;28.20;99.90;;;;;;5114129;27;20019;-69
2021/07/11 10:35:48;;;;;;;5.35;4.95;;;28.30;99.90;;;;;;5116603;27;20492;-68
2021/07/11 10:38:25;;;;;;;5.63;4.47;;;28.40;99.90;;;;;;5121852;27;20481;-68
2021/07/11 10:40:51;;;;;;;11.57;5.03;;;28.50;99.90;;;;;;5119624;27;20450;-68
2021/07/11 10:43:20;;;;;;;7.50;5.70;;;28.60;99.90;;;;;;5120111;27;20142;-68
2021/07/11 10:45:47;;;;;;;7.03;5.07;;;28.50;99.90;;;;;;5118710;27;20094;-66
2021/07/11 10:48:26;;;;;;;10.70;4.55;;;28.50;99.90;;;;;;5121177;27;20505;-69
2021/07/11 10:50:52;;;;;;;6.80;5.35;;;28.60;99.90;;;;;;5119524;27;20516;-69
2021/07/11 10:53:18;;;;;;;6.68;5.32;;;28.70;99.90;;;;;;5117206;27;20046;-68
2021/07/11 10:55:44;;;;;;;7.50;4.60;;;28.80;99.90;;;;;;5111793;27;20110;-68
2021/07/11 10:58:16;;;;;;;4.65;4.30;;;28.80;99.90;;;;;;5113595;27;20087;-69
2021/07/11 11:00:42;;;;;;;7.03;4.10;;;28.90;99.90;;;;;;5120563;27;20019;-66
2021/07/11 11:03:44;;;;;;;8.85;3.95;;;28.90;99.90;;;;;;5123929;27;20562;-67
2021/07/11 11:06:13;;;;;;;7.97;4.75;;;28.80;99.90;;;;;;5112028;27;20050;-68
2021/07/11 11:08:43;;;;;;;7.03;5.50;;;28.80;99.90;;;;;;5107791;28;20035;-67
2021/07/11 11:11:09;;;;;;;14.93;5.13;;;29.00;99.90;;;;;;5107856;28;20049;-68
2021/07/11 11:13:35;;;;;;;6.05;5.50;;;29.00;99.90;;;;;;5110368;28;20027;-68
2021/07/11 11:16:22;;;;;;;9.10;4.30;;;29.10;99.90;;;;;;5111397;28;20019;-68
2021/07/11 11:18:55;;;;;;;5.57;4.68;;;29.00;99.90;;;;;;5110076;27;20096;-68
2021/07/11 11:21:25;;;;;;;10.40;4.25;;;29.00;99.90;;;;;;5110895;28;20085;-66
2021/07/11 11:23:53;;;;;;;6.30;5.30;;;29.10;99.90;;;;;;5110285;28;20024;-67
2021/07/11 11:26:29;;;;;;;4.03;3.63;;;29.10;99.90;;;;;;5108292;28;20036;-66
2021/07/11 11:28:57;;;;;;;9.10;4.47;;;28.90;99.90;;;;;;5107867;27;20057;-66
2021/07/11 11:31:34;;;;;;;12.98;4.28;;;28.90;99.90;;;;;;5110798;28;20016;-68
2021/07/11 11:34:01;;;;;;;6.93;3.55;;;29.00;99.90;;;;;;5110654;28;20024;-67
2021/07/11 11:36:56;;;;;;;5.68;4.20;;;29.10;99.90;;;;;;5107835;28;20026;-67
2021/07/11 11:39:28;;;;;;;8.05;4.60;;;29.00;99.90;;;;;;5094864;28;20554;-67
2021/07/11 11:41:55;;;;;;;4.35;3.97;;;29.10;99.90;;;;;;5110397;28;20099;-67
2021/07/11 11:44:25;;;;;;;5.57;4.70;;;29.00;99.90;;;;;;5109423;28;20054;-69
2021/07/11 11:46:54;;;;;;;5.97;4.22;;;29.00;99.90;;;;;;5090399;28;20119;-66
2021/07/11 11:49:22;;;;;;;8.07;5.13;;;29.10;99.90;;;;;;5091521;28;20162;-67
2021/07/11 11:51:59;;;;;;;4.63;4.22;;;29.10;99.90;;;;;;5090438;28;20031;-66
2021/07/11 11:54:44;;;;;;;5.95;5.45;;;29.00;99.90;;;;;;5089999;28;20375;-68
2021/07/11 11:57:10;;;;;;;7.90;4.72;;;28.90;99.90;;;;;;5089644;28;20073;-68
2021/07/11 11:59:39;;;;;;;6.53;5.35;;;29.00;99.90;;;;;;5104429;28;20111;-67
2021/07/11 12:02:12;;;;;;;6.88;5.18;;;29.00;99.90;;;;;;5109110;28;20028;-68
2021/07/11 12:04:38;;;;;;;10.10;5.20;;;29.00;99.90;;;;;;5108876;28;20027;-67
2021/07/11 12:07:14;;;;;;;6.15;5.53;;;29.10;99.90;;;;;;5110164;28;20477;-69
2021/07/11 12:09:43;;;;;;;8.27;4.82;;;29.20;99.90;;;;;;5103762;28;20027;-68
2021/07/11 12:12:11;;;;;;;6.22;5.20;;;29.40;99.90;;;;;;5107399;28;20020;-66
2021/07/11 12:14:42;;;;;;;9.43;5.18;;;29.30;99.90;;;;;;5099243;28;20114;-68
2021/07/11 12:17:13;;;;;;;5.32;4.85;;;29.30;99.90;;;;;;5107212;28;20027;-69
2021/07/11 12:19:53;;;;;;;5.10;4.70;;;29.20;99.90;;;;;;5109787;28;20055;-72
2021/07/11 12:22:28;;;;;;;5.13;4.72;;;29.30;99.90;;;;;;5109855;28;20347;-75
2021/07/11 12:25:10;;;;;;;5.00;4.15;;;29.30;99.90;;;;;;5092327;28;20505;-73
2021/07/11 12:27:44;;;;;;;8.95;4.25;;;29.50;99.90;;;;;;5093684;27;20488;-73
2021/07/11 12:30:15;;;;;;;5.90;3.47;;;29.50;99.90;;;;;;5105282;28;20118;-73
2021/07/11 12:32:56;;;;;;;3.63;3.33;;;29.50;99.90;;;;;;5106018;28;20026;-72
2021/07/11 12:35:24;;;;;;;6.53;3.72;;;29.40;99.90;;;;;;5099877;28;20100;-74
2021/07/11 12:37:56;;;;;;;5.40;2.80;;;29.30;99.90;;;;;;5097974;28;20027;-73
2021/07/11 12:40:42;;;;;;;6.20;3.30;;;29.60;99.90;;;;;;5120410;27;20405;-77
2021/07/11 12:43:21;;;;;;;3.97;3.58;;;29.60;99.90;;;;;;5127863;27;20030;-80
2021/07/11 12:46:02;;;;;;;8.60;3.60;;;29.50;99.90;;;;;;5112883;27;20504;-81
2021/07/11 12:48:39;;;;;;;4.47;4.07;;;29.80;99.90;;;;;;5133854;27;20028;-79
2021/07/11 12:51:23;;;;;;;6.53;2.97;;;29.90;99.90;;;;;;5123097;27;20043;-78
2021/07/11 12:53:53;;;;;;;7.53;3.10;;;29.80;99.90;;;;;;5124772;27;20113;-77
2021/07/11 12:56:22;;;;;;;4.32;3.92;;;29.80;99.90;;;;;;5124734;27;20042;-78